Time;durP1;ratioP1;P1;durP2;ratioP2;P2;SDS_P1;SDS_P2;PMS_P1;PMS_P2;Temp;Humidity;BMP_temperature;BMP_pressure;BME280_temperature;BME280_humidity;BME280_pressure;Samples;Min_cycle;Max_cycle;Signal;HPM_P1;HPM_P2
2022/07/02 00:00:51;;;;;;;9.27;4.50;;;14.80;57.00;;;;;;5066263;28;20405;-57
2022/07/02 00:03:29;;;;;;;10.00;4.78;;;14.80;70.40;;;;;;5069637;28;20379;-57
2022/07/02 00:05:57;;;;;;;9.93;4.90;;;14.80;43.80;;;;;;5071736;28;20442;-57
2022/07/02 00:08:24;;;;;;;9.85;4.47;;;14.80;58.00;;;;;;5070690;28;20410;-58
2022/07/02 00:10:51;;;;;;;12.00;4.75;;;14.70;53.40;;;;;;5071505;28;20379;-57
2022/07/02 00:13:18;;;;;;;8.57;4.78;;;14.70;80.70;;;;;;5070668;28;20383;-57
2022/07/02 00:15:44;;;;;;;10.55;4.95;;;14.80;68.10;;;;;;5071432;28;20375;-57
2022/07/02 00:18:11;;;;;;;9.52;4.88;;;14.70;80.50;;;;;;5070973;28;20406;-56
2022/07/02 00:20:37;;;;;;;10.43;4.95;;;14.70;88.00;;;;;;5058290;28;20393;-56
2022/07/02 00:23:03;;;;;;;11.88;4.72;;;14.60;98.40;;;;;;5084867;28;20398;-57
2022/07/02 00:25:37;;;;;;;9.55;4.68;;;14.60;99.90;;;;;;5084338;28;20522;-57
2022/07/02 00:28:06;;;;;;;9.32;4.38;;;14.60;99.90;;;;;;5076442;28;20498;-57
2022/07/02 00:30:33;;;;;;;9.00;5.00;;;14.60;95.00;;;;;;5081365;28;20414;-56
2022/07/02 00:33:00;;;;;;;13.25;5.53;;;14.50;96.30;;;;;;5073040;28;20392;-57
2022/07/02 00:35:27;;;;;;;11.70;5.37;;;14.50;99.90;;;;;;5076533;28;20422;-57
2022/07/02 00:37:54;;;;;;;11.00;5.55;;;14.50;99.90;;;;;;5075514;28;20392;-57
2022/07/02 00:40:20;;;;;;;9.75;5.35;;;14.50;99.90;;;;;;5078559;28;20485;-57
2022/07/02 00:42:47;;;;;;;8.40;4.88;;;14.40;99.90;;;;;;5072043;28;20416;-58
2022/07/02 00:45:15;;;;;;;9.82;4.80;;;14.40;99.90;;;;;;5077272;28;20392;-55
2022/07/02 00:47:43;;;;;;;9.90;4.75;;;14.50;99.90;;;;;;5085238;28;20410;-57
2022/07/02 00:50:09;;;;;;;10.73;4.87;;;14.50;99.90;;;;;;5076904;28;20859;-57
2022/07/02 00:52:34;;;;;;;10.07;4.70;;;14.40;99.90;;;;;;5070480;28;20443;-58
2022/07/02 00:55:00;;;;;;;9.47;4.70;;;14.40;99.90;;;;;;5067728;28;20407;-57
2022/07/02 00:57:26;;;;;;;9.35;4.35;;;14.40;99.90;;;;;;5083088;28;20405;-58
2022/07/02 00:59:52;;;;;;;9.20;4.40;;;14.30;99.90;;;;;;5076318;28;20390;-57
2022/07/02 01:02:21;;;;;;;9.68;4.80;;;14.30;99.90;;;;;;5073956;28;20416;-57
2022/07/02 01:04:49;;;;;;;9.10;4.90;;;14.30;99.90;;;;;;5071141;28;20396;-57
2022/07/02 01:07:16;;;;;;;8.68;4.80;;;14.30;99.90;;;;;;5079931;28;20410;-55
2022/07/02 01:12:33;;;;;;;10.43;5.47;;;14.10;99.90;;;;;;5078297;28;20390;-57
2022/07/02 01:14:59;;;;;;;9.30;5.10;;;14.10;99.90;;;;;;5071521;28;20493;-57
2022/07/02 01:17:25;;;;;;;10.38;5.15;;;14.10;99.90;;;;;;5079311;28;20526;-57
2022/07/02 01:19:51;;;;;;;11.27;5.60;;;14.10;99.90;;;;;;5070088;28;20702;-57
2022/07/02 01:22:31;;;;;;;10.50;5.00;;;14.00;99.90;;;;;;5082932;28;20440;-56
2022/07/02 01:24:57;;;;;;;8.80;4.93;;;14.00;99.90;;;;;;5084743;28;21276;-58
2022/07/02 01:27:23;;;;;;;10.67;4.87;;;14.10;99.90;;;;;;5084185;28;20421;-57
2022/07/02 01:29:49;;;;;;;10.57;5.38;;;14.00;99.90;;;;;;5076664;28;20396;-58
2022/07/02 01:32:16;;;;;;;11.25;5.18;;;14.00;99.90;;;;;;5074747;28;20390;-57
2022/07/02 01:34:44;;;;;;;11.32;5.50;;;14.00;99.90;;;;;;5088083;28;21120;-57
2022/07/02 01:37:12;;;;;;;10.27;5.28;;;14.00;99.90;;;;;;5076080;28;20473;-58
2022/07/02 01:39:38;;;;;;;11.30;4.70;;;14.00;99.90;;;;;;5071755;28;20394;-58
2022/07/02 01:42:06;;;;;;;11.02;5.35;;;13.90;99.90;;;;;;5070704;28;20391;-58
2022/07/02 01:44:32;;;;;;;12.00;5.10;;;13.80;99.90;;;;;;5085876;28;20386;-57
2022/07/02 01:46:58;;;;;;;9.00;4.43;;;13.80;99.90;;;;;;5078764;28;20407;-57
2022/07/02 01:49:24;;;;;;;10.40;5.20;;;13.80;99.90;;;;;;5073173;28;20393;-57
2022/07/02 01:51:49;;;;;;;11.20;5.97;;;13.70;99.90;;;;;;5090163;28;20428;-57
2022/07/02 01:54:15;;;;;;;11.18;5.93;;;13.80;99.90;;;;;;5074404;28;20403;-55
2022/07/02 01:56:40;;;;;;;9.65;5.55;;;13.80;99.90;;;;;;5079020;28;20422;-57
2022/07/02 01:59:06;;;;;;;11.93;5.63;;;13.90;99.90;;;;;;5083606;28;20907;-59
2022/07/02 02:01:32;;;;;;;10.65;5.65;;;13.90;99.90;;;;;;5073349;28;20384;-58
2022/07/02 02:03:58;;;;;;;11.30;6.17;;;13.90;99.90;;;;;;5083941;28;20705;-57
2022/07/02 02:06:23;;;;;;;10.88;5.20;;;13.80;99.90;;;;;;5068634;28;20383;-57
2022/07/02 02:08:49;;;;;;;10.65;5.70;;;13.80;99.90;;;;;;5081711;28;21046;-57
2022/07/02 02:11:16;;;;;;;8.85;5.00;;;13.80;99.90;;;;;;5068138;28;20430;-57
2022/07/02 02:13:41;;;;;;;10.93;5.80;;;13.90;99.90;;;;;;5069368;28;20380;-59
2022/07/02 02:16:07;;;;;;;11.20;5.97;;;13.90;99.90;;;;;;5073281;28;20481;-58
2022/07/02 02:18:33;;;;;;;11.70;6.30;;;14.00;99.90;;;;;;5086501;28;20548;-58
2022/07/02 02:20:59;;;;;;;10.57;5.93;;;13.90;99.90;;;;;;5070213;28;20418;-58
2022/07/02 02:23:24;;;;;;;12.60;6.17;;;13.90;99.90;;;;;;5085498;28;20389;-58
2022/07/02 02:25:50;;;;;;;11.53;5.90;;;13.80;99.90;;;;;;5076452;28;20915;-59
2022/07/02 02:28:16;;;;;;;14.30;5.97;;;13.70;99.90;;;;;;5066751;28;20904;-55
2022/07/02 02:30:42;;;;;;;11.60;6.10;;;13.70;99.90;;;;;;5069874;28;20396;-57
2022/07/02 02:33:07;;;;;;;12.60;6.30;;;13.60;99.90;;;;;;5084830;28;20803;-57
2022/07/02 02:35:33;;;;;;;9.97;5.60;;;13.60;99.90;;;;;;5078557;28;20391;-57
2022/07/02 02:37:59;;;;;;;11.02;5.95;;;13.60;99.90;;;;;;5068858;28;20485;-57
2022/07/02 02:40:24;;;;;;;11.85;5.20;;;13.60;99.90;;;;;;5082707;28;20461;-58
2022/07/02 02:42:50;;;;;;;11.53;5.67;;;13.60;99.90;;;;;;5076628;28;20402;-58
2022/07/02 02:45:16;;;;;;;11.60;5.83;;;13.50;99.90;;;;;;5086123;28;20386;-55
2022/07/02 02:47:41;;;;;;;10.55;5.30;;;13.60;99.90;;;;;;5084660;28;20410;-60
2022/07/02 02:50:07;;;;;;;12.13;5.00;;;13.60;99.90;;;;;;5078147;28;20391;-59
2022/07/02 02:52:33;;;;;;;11.00;5.18;;;13.70;99.90;;;;;;5067654;28;20891;-57
2022/07/02 02:55:00;;;;;;;10.57;5.35;;;13.60;99.90;;;;;;5069073;28;20510;-58
2022/07/02 02:57:26;;;;;;;9.30;5.10;;;13.50;99.90;;;;;;5078409;28;20402;-58
2022/07/02 02:59:52;;;;;;;9.00;4.60;;;13.40;99.90;;;;;;5077154;28;20481;-57
2022/07/02 03:02:17;;;;;;;10.73;4.80;;;13.30;99.90;;;;;;5080930;28;20729;-58
2022/07/02 03:04:43;;;;;;;9.70;5.00;;;13.20;99.90;;;;;;5072171;28;20845;-57
2022/07/02 03:07:08;;;;;;;9.23;4.97;;;13.20;99.90;;;;;;5070427;28;20403;-57
2022/07/02 03:09:34;;;;;;;10.23;5.07;;;13.20;99.90;;;;;;5070408;28;20399;-57
2022/07/02 03:11:59;;;;;;;11.15;4.88;;;13.20;99.90;;;;;;5083049;28;20384;-57
2022/07/02 03:14:25;;;;;;;10.77;5.20;;;13.30;99.90;;;;;;5083841;28;20395;-57
2022/07/02 03:16:51;;;;;;;10.97;4.90;;;13.30;99.90;;;;;;5085743;28;20397;-57
2022/07/02 03:19:16;;;;;;;10.40;4.88;;;13.30;99.90;;;;;;5078716;28;20397;-55
2022/07/02 03:21:42;;;;;;;9.63;5.05;;;13.20;99.90;;;;;;5071380;28;20942;-57
2022/07/02 03:24:08;;;;;;;9.97;5.23;;;13.20;99.90;;;;;;5067373;28;20726;-57
2022/07/02 03:26:33;;;;;;;13.20;4.70;;;13.20;99.90;;;;;;5078125;28;20397;-56
2022/07/02 03:28:59;;;;;;;10.18;5.30;;;13.20;99.90;;;;;;5077682;28;20392;-56
2022/07/02 03:31:24;;;;;;;10.37;5.53;;;13.10;99.90;;;;;;5087930;28;20839;-57
2022/07/02 03:33:50;;;;;;;11.48;5.03;;;13.20;99.90;;;;;;5083286;28;20391;-58
2022/07/02 03:36:16;;;;;;;9.48;5.60;;;13.20;99.90;;;;;;5087195;28;20894;-56
2022/07/02 03:38:42;;;;;;;13.57;5.00;;;13.20;99.90;;;;;;5092121;28;20389;-57
2022/07/02 03:41:08;;;;;;;10.00;4.90;;;13.20;99.90;;;;;;5076297;28;20744;-57
2022/07/02 03:43:33;;;;;;;9.95;5.00;;;13.20;99.90;;;;;;5081643;28;21195;-57
2022/07/02 03:45:59;;;;;;;9.07;5.10;;;13.20;99.90;;;;;;5084390;28;20544;-57
2022/07/02 03:48:25;;;;;;;10.30;5.40;;;13.30;99.90;;;;;;5088180;28;20461;-57
2022/07/02 03:50:50;;;;;;;11.15;5.07;;;13.30;99.90;;;;;;5079641;28;20876;-57
2022/07/02 03:53:16;;;;;;;10.38;5.25;;;13.40;99.90;;;;;;5081686;28;20388;-55
2022/07/02 03:55:42;;;;;;;10.70;5.40;;;13.20;99.90;;;;;;5090758;28;20389;-58
2022/07/02 03:58:07;;;;;;;10.88;5.50;;;13.30;99.90;;;;;;5074806;28;20502;-57
2022/07/02 04:00:33;;;;;;;10.83;5.87;;;13.40;99.90;;;;;;5085783;28;20409;-57
2022/07/02 04:02:59;;;;;;;9.93;5.10;;;13.40;99.90;;;;;;5071648;28;20445;-57
2022/07/02 04:05:24;;;;;;;8.85;4.63;;;13.50;99.90;;;;;;5070922;28;20388;-57
2022/07/02 04:07:50;;;;;;;9.57;4.80;;;13.50;99.90;;;;;;5080409;28;20913;-57
2022/07/02 04:10:16;;;;;;;8.93;4.97;;;13.60;99.90;;;;;;5079134;28;20513;-55
2022/07/02 04:12:42;;;;;;;10.73;5.03;;;13.50;99.90;;;;;;5071191;28;20502;-57
2022/07/02 04:15:08;;;;;;;12.13;5.60;;;13.60;99.90;;;;;;5075092;28;20439;-57
2022/07/02 04:17:34;;;;;;;11.13;5.38;;;13.50;99.90;;;;;;5079023;28;20439;-57
2022/07/02 04:19:59;;;;;;;9.77;5.07;;;13.60;99.90;;;;;;5072559;28;20416;-57
2022/07/02 04:22:25;;;;;;;9.87;5.80;;;13.60;99.90;;;;;;5071730;28;20466;-57
2022/07/02 04:24:51;;;;;;;9.23;5.53;;;13.70;99.90;;;;;;5073509;28;20513;-57
2022/07/02 04:27:18;;;;;;;10.18;6.05;;;13.80;99.90;;;;;;5079503;28;20456;-56
2022/07/02 04:29:44;;;;;;;13.38;6.20;;;13.80;99.90;;;;;;5082818;28;20398;-58
2022/07/02 04:32:09;;;;;;;9.95;5.35;;;14.00;99.90;;;;;;5076410;28;20726;-57
2022/07/02 04:34:35;;;;;;;12.83;6.10;;;14.00;99.90;;;;;;5071240;28;20399;-58
2022/07/02 04:37:01;;;;;;;13.18;6.20;;;14.20;99.90;;;;;;5081424;28;20406;-58
2022/07/02 04:39:26;;;;;;;12.20;6.50;;;14.20;99.90;;;;;;5091163;28;20385;-58
2022/07/02 04:41:52;;;;;;;9.93;5.83;;;14.30;99.90;;;;;;5075062;28;20471;-57
2022/07/02 04:44:18;;;;;;;12.00;7.00;;;14.40;99.90;;;;;;5071117;28;20515;-56
2022/07/02 04:46:43;;;;;;;11.82;7.40;;;14.30;99.90;;;;;;5089545;28;20390;-58
2022/07/02 04:49:09;;;;;;;14.23;7.20;;;14.50;99.90;;;;;;5074253;28;20693;-57
2022/07/02 04:51:35;;;;;;;14.15;7.53;;;14.60;99.90;;;;;;5069998;28;20384;-57
2022/07/02 04:54:00;;;;;;;13.07;7.17;;;14.60;99.90;;;;;;5070547;28;20396;-57
2022/07/02 04:56:27;;;;;;;12.33;7.30;;;14.80;99.90;;;;;;5089312;28;20937;-58
2022/07/02 04:58:54;;;;;;;12.20;6.95;;;15.00;99.90;;;;;;5080210;28;20407;-58
2022/07/02 05:01:20;;;;;;;13.90;7.50;;;15.50;99.90;;;;;;5068788;28;20892;-56
2022/07/02 05:03:46;;;;;;;11.07;6.35;;;16.50;99.90;;;;;;5072388;28;20422;-60
2022/07/02 05:06:11;;;;;;;10.77;5.67;;;17.50;1.00;;;;;;5073234;28;20656;-58
2022/07/02 05:08:37;;;;;;;11.07;5.30;;;18.80;99.90;;;;;;5070666;28;20414;-57
2022/07/02 05:11:03;;;;;;;9.73;4.70;;;20.10;99.90;;;;;;5091096;28;20446;-58
2022/07/02 05:13:28;;;;;;;10.10;4.73;;;21.10;99.90;;;;;;5088959;28;20376;-57
2022/07/02 05:15:54;;;;;;;10.65;4.70;;;21.30;99.90;;;;;;5074052;28;20391;-58
2022/07/02 05:18:19;;;;;;;9.23;4.68;;;22.50;1.00;;;;;;5069563;28;20395;-56
2022/07/02 05:20:45;;;;;;;9.40;4.60;;;23.50;1.00;;;;;;5069833;28;20865;-58
2022/07/02 05:23:11;;;;;;;8.32;3.95;;;24.50;1.00;;;;;;5069959;28;20380;-58
2022/07/02 05:25:37;;;;;;;9.18;3.80;;;25.00;99.90;;;;;;5068906;28;20408;-58
2022/07/02 05:28:03;;;;;;;8.77;4.32;;;25.60;99.90;;;;;;5069689;28;20404;-58
2022/07/02 05:30:28;;;;;;;7.97;4.25;;;25.60;99.90;;;;;;5068512;28;20388;-58
2022/07/02 05:32:54;;;;;;;9.33;4.20;;;25.50;99.90;;;;;;5069673;28;20529;-58
2022/07/02 05:35:20;;;;;;;9.13;4.10;;;24.90;99.90;;;;;;5069467;28;20898;-56
2022/07/02 05:37:45;;;;;;;9.25;3.88;;;25.40;99.90;;;;;;5069719;28;20384;-58
2022/07/02 05:40:11;;;;;;;10.18;4.40;;;25.90;99.90;;;;;;5069734;28;20372;-58
2022/07/02 05:42:37;;;;;;;9.52;4.00;;;26.40;99.90;;;;;;5068410;28;20415;-59
2022/07/02 05:45:03;;;;;;;7.68;4.38;;;27.00;99.90;;;;;;5068612;28;20372;-59
2022/07/02 05:47:28;;;;;;;8.55;5.60;;;27.50;99.90;;;;;;5060930;28;20874;-60
2022/07/02 05:49:55;;;;;;;8.68;5.72;;;28.20;99.90;;;;;;5067809;28;20392;-59
2022/07/02 05:52:21;;;;;;;8.20;6.20;;;28.60;99.90;;;;;;5064850;28;20749;-56
2022/07/02 05:54:46;;;;;;;8.70;6.10;;;28.70;99.90;;;;;;5069629;28;20414;-59
2022/07/02 05:57:12;;;;;;;8.70;5.30;;;27.80;99.90;;;;;;5087608;28;21018;-60
2022/07/02 05:59:38;;;;;;;7.60;4.53;;;27.60;99.90;;;;;;5069572;28;20388;-59
2022/07/02 06:02:04;;;;;;;7.50;4.70;;;28.10;99.90;;;;;;5066551;28;20461;-59
2022/07/02 06:04:31;;;;;;;7.90;6.00;;;27.80;99.90;;;;;;5061775;28;20411;-58
2022/07/02 06:09:42;;;;;;;7.97;5.70;;;27.50;99.90;;;;;;5069593;28;20506;-60
2022/07/02 06:12:08;;;;;;;6.90;5.40;;;28.40;99.90;;;;;;5070118;28;20471;-62
2022/07/02 06:14:34;;;;;;;7.90;5.55;;;28.90;99.90;;;;;;5069718;28;20453;-53
2022/07/02 06:16:59;;;;;;;8.30;5.50;;;28.50;99.90;;;;;;5065739;28;20411;-53
2022/07/02 06:19:25;;;;;;;7.40;5.90;;;28.90;99.90;;;;;;5070319;28;20482;-54
2022/07/02 06:21:51;;;;;;;8.00;4.80;;;29.00;99.90;;;;;;5066546;28;20422;-54
2022/07/02 06:24:17;;;;;;;9.60;4.00;;;28.50;99.90;;;;;;5072763;28;20405;-54
2022/07/02 06:26:43;;;;;;;7.05;4.50;;;28.60;99.90;;;;;;5071896;28;20761;-53
2022/07/02 06:29:09;;;;;;;7.05;4.55;;;28.70;99.90;;;;;;5067070;28;20416;-53
2022/07/02 06:31:37;;;;;;;7.75;4.93;;;29.30;99.90;;;;;;5064100;28;20416;-53
2022/07/02 06:34:05;;;;;;;6.93;4.40;;;29.30;99.90;;;;;;5068178;28;20425;-53
2022/07/02 06:36:31;;;;;;;8.13;6.20;;;29.80;99.90;;;;;;5064627;28;20435;-53
2022/07/02 06:38:57;;;;;;;7.20;5.35;;;30.80;99.90;;;;;;5066562;28;20481;-53
2022/07/02 06:44:07;;;;;;;7.10;4.80;;;30.10;99.90;;;;;;5064911;28;20399;-53
2022/07/02 06:46:34;;;;;;;6.78;5.50;;;30.50;99.90;;;;;;5062466;28;20407;-53
2022/07/02 06:49:00;;;;;;;7.82;4.93;;;30.90;99.90;;;;;;5066343;28;20452;-53
2022/07/02 06:51:26;;;;;;;7.05;5.20;;;31.00;99.90;;;;;;5077954;28;20582;-53
2022/07/02 06:53:55;;;;;;;6.75;4.45;;;31.60;99.90;;;;;;5071160;28;20435;-54
2022/07/02 06:56:20;;;;;;;7.53;5.65;;;32.20;1.00;;;;;;5068006;28;20388;-54
2022/07/02 06:58:46;;;;;;;10.17;9.27;;;32.50;1.00;;;;;;5065729;28;20422;-54
2022/07/02 07:01:11;;;;;;;7.83;3.63;;;32.90;23.10;;;;;;5065961;28;20761;-53
2022/07/02 07:03:37;;;;;;;6.75;4.20;;;31.80;56.30;;;;;;5065604;28;20413;-53
2022/07/02 07:06:03;;;;;;;6.80;4.50;;;30.70;42.90;;;;;;5065213;28;20400;-53
2022/07/02 07:08:28;;;;;;;5.60;3.50;;;30.50;7.10;;;;;;5073443;28;20418;-54
2022/07/02 07:10:54;;;;;;;5.60;3.50;;;31.10;1.00;;;;;;5076233;28;20390;-54
2022/07/02 07:13:20;;;;;;;7.87;4.10;;;32.00;1.00;;;;;;5074769;28;20923;-54
2022/07/02 07:15:46;;;;;;;5.25;1.20;;;32.60;1.00;;;;;;5076417;28;20990;-55
2022/07/02 07:18:12;;;;;;;5.03;1.13;;;33.10;1.00;;;;;;5078289;28;20764;-54
2022/07/02 07:20:38;;;;;;;6.40;3.63;;;32.90;1.00;;;;;;5081328;28;20457;-54
2022/07/02 07:23:03;;;;;;;7.87;3.90;;;32.30;1.00;;;;;;5070751;28;20403;-54
2022/07/02 07:25:30;;;;;;;5.37;2.23;;;32.60;1.00;;;;;;5073309;28;20420;-54
2022/07/02 07:27:56;;;;;;;6.38;1.40;;;32.80;1.00;;;;;;5066199;28;20461;-54
2022/07/02 07:30:22;;;;;;;6.22;1.70;;;33.00;1.00;;;;;;5069652;28;20404;-54
2022/07/02 07:32:47;;;;;;;5.70;1.30;;;32.70;1.00;;;;;;5068047;28;20481;-54
2022/07/02 07:35:13;;;;;;;5.67;1.23;;;32.70;1.00;;;;;;5063105;28;20911;-54
2022/07/02 07:37:38;;;;;;;5.20;1.20;;;33.30;1.00;;;;;;5067366;28;20428;-54
2022/07/02 07:40:06;;;;;;;6.78;1.10;;;32.40;1.00;;;;;;5058899;28;20400;-54
2022/07/02 07:42:31;;;;;;;5.50;3.50;;;32.10;1.00;;;;;;5070880;28;20882;-53
2022/07/02 07:44:57;;;;;;;5.55;3.47;;;32.10;1.00;;;;;;5060310;28;20411;-53
2022/07/02 07:47:22;;;;;;;8.00;4.10;;;32.30;1.00;;;;;;5062776;28;20450;-54
2022/07/02 07:49:48;;;;;;;5.40;3.80;;;31.90;1.00;;;;;;5073749;28;20510;-54
2022/07/02 07:52:14;;;;;;;5.43;3.40;;;32.30;1.00;;;;;;5057665;28;20409;-54
2022/07/02 07:54:39;;;;;;;4.70;1.17;;;32.60;1.00;;;;;;5057844;28;20400;-53
2022/07/02 07:57:06;;;;;;;5.10;1.00;;;33.00;1.00;;;;;;5071446;28;20410;-53
2022/07/02 07:59:31;;;;;;;4.40;0.90;;;33.70;1.00;;;;;;5061506;28;20890;-53
2022/07/02 08:01:57;;;;;;;5.40;0.90;;;33.40;1.00;;;;;;5056697;28;20390;-53
2022/07/02 08:04:24;;;;;;;5.50;3.60;;;32.80;1.00;;;;;;5062369;28;20449;-53
2022/07/02 08:06:49;;;;;;;5.57;3.83;;;32.70;1.00;;;;;;5071724;28;20825;-53
2022/07/02 08:09:15;;;;;;;5.53;3.05;;;32.80;1.00;;;;;;5052511;28;20417;-53
2022/07/02 08:11:41;;;;;;;5.40;3.00;;;33.00;15.90;;;;;;5061713;28;20427;-53
2022/07/02 08:14:06;;;;;;;5.80;3.30;;;32.60;23.20;;;;;;5065834;28;20405;-53
2022/07/02 08:16:32;;;;;;;6.77;3.40;;;;;;;;;;5061362;28;20440;-53
2022/07/02 08:18:58;;;;;;;4.80;0.80;;;33.40;99.90;;;;;;5067397;28;20769;-53
2022/07/02 08:21:24;;;;;;;4.73;0.80;;;33.60;99.90;;;;;;5062553;28;20390;-53
2022/07/02 08:23:49;;;;;;;5.70;1.30;;;34.10;99.90;;;;;;5060552;28;20397;-53
2022/07/02 08:26:15;;;;;;;5.13;1.17;;;33.80;99.90;;;;;;5065110;28;20463;-53
2022/07/02 08:28:41;;;;;;;7.00;1.30;;;33.80;99.90;;;;;;5064259;28;20425;-53
2022/07/02 08:31:07;;;;;;;4.70;0.80;;;33.80;99.90;;;;;;5059890;28;20408;-54
2022/07/02 08:33:33;;;;;;;5.15;2.83;;;33.90;99.90;;;;;;5061388;28;20821;-54
2022/07/02 08:35:59;;;;;;;5.82;3.20;;;33.20;99.90;;;;;;5064420;28;20531;-54
2022/07/02 08:38:25;;;;;;;6.80;3.80;;;32.90;99.90;;;;;;5066161;28;20394;-53
2022/07/02 08:40:51;;;;;;;5.40;3.30;;;32.70;99.90;;;;;;5059326;28;20452;-53
2022/07/02 08:43:22;;;;;;;5.30;3.20;;;32.70;99.90;;;;;;5061283;28;20417;-53
2022/07/02 08:45:51;;;;;;;5.43;3.00;;;32.80;99.90;;;;;;5061251;28;20415;-54
2022/07/02 08:48:17;;;;;;;5.88;3.45;;;33.20;99.90;;;;;;5060534;28;20914;-53
2022/07/02 08:50:42;;;;;;;5.30;2.88;;;33.00;99.90;;;;;;5069068;28;20380;-53
2022/07/02 08:53:08;;;;;;;5.10;3.10;;;33.20;99.90;;;;;;5065132;28;20406;-53
2022/07/02 08:55:35;;;;;;;6.50;3.25;;;33.50;99.90;;;;;;5061621;28;20397;-54
2022/07/02 08:58:01;;;;;;;5.30;3.10;;;34.50;99.90;;;;;;5061189;28;20477;-54
2022/07/02 09:00:28;;;;;;;5.68;3.05;;;34.20;99.90;;;;;;5065245;28;20393;-54
2022/07/02 09:02:56;;;;;;;5.20;2.53;;;34.10;99.90;;;;;;5066162;28;20658;-53
2022/07/02 09:05:25;;;;;;;6.80;1.67;;;34.60;99.90;;;;;;5067757;28;20466;-54
2022/07/02 09:07:51;;;;;;;5.82;3.60;;;34.20;99.90;;;;;;5070203;28;20495;-53
2022/07/02 09:10:19;;;;;;;7.20;3.53;;;33.20;99.90;;;;;;5069855;28;20437;-54
2022/07/02 09:12:46;;;;;;;5.10;2.80;;;32.60;99.90;;;;;;5069804;28;20409;-54
2022/07/02 09:15:13;;;;;;;6.40;3.10;;;33.30;99.90;;;;;;5059806;28;20437;-54
2022/07/02 09:17:43;;;;;;;5.28;3.30;;;33.50;99.90;;;;;;5063031;28;20417;-55
2022/07/02 09:20:12;;;;;;;5.73;3.60;;;33.70;99.90;;;;;;5057570;28;20411;-54
2022/07/02 09:22:47;;;;;;;5.40;3.28;;;33.40;99.90;;;;;;5052676;28;20385;-54
2022/07/02 09:25:16;;;;;;;5.80;3.15;;;33.10;99.90;;;;;;5063367;28;20894;-55
2022/07/02 09:27:44;;;;;;;5.50;3.20;;;33.20;99.90;;;;;;5061597;28;20480;-54
2022/07/02 09:30:11;;;;;;;6.00;2.90;;;33.30;99.90;;;;;;5058653;28;20862;-54
2022/07/02 09:32:39;;;;;;;6.67;3.43;;;32.80;99.90;;;;;;5061340;28;20437;-54
2022/07/02 09:35:05;;;;;;;5.60;4.35;;;33.00;99.90;;;;;;5056242;28;20833;-54
2022/07/02 09:37:31;;;;;;;6.20;3.30;;;32.60;99.90;;;;;;5060907;28;20386;-54
2022/07/02 09:40:00;;;;;;;5.50;3.30;;;33.10;99.90;;;;;;5063756;28;20449;-54
2022/07/02 09:42:34;;;;;;;6.60;3.80;;;33.70;99.90;;;;;;5061900;28;20409;-54
2022/07/02 09:45:05;;;;;;;5.50;3.00;;;33.70;99.90;;;;;;5060025;28;20418;-54
2022/07/02 09:47:36;;;;;;;5.80;3.40;;;33.00;99.90;;;;;;5064730;28;20474;-54
2022/07/02 09:50:07;;;;;;;6.00;3.88;;;32.30;99.90;;;;;;5061797;28;20419;-54
2022/07/02 09:52:32;;;;;;;6.10;3.90;;;32.30;99.90;;;;;;5062684;28;20898;-54
2022/07/02 09:54:59;;;;;;;6.00;3.90;;;32.20;99.90;;;;;;5055749;28;20427;-54
2022/07/02 09:57:26;;;;;;;6.85;3.90;;;32.90;99.90;;;;;;5056726;28;20440;-54
2022/07/02 09:59:52;;;;;;;6.37;3.40;;;33.10;99.90;;;;;;5066925;28;20438;-54
2022/07/02 10:02:23;;;;;;;6.05;3.40;;;33.00;99.90;;;;;;5071401;28;20486;-54
2022/07/02 10:04:51;;;;;;;5.57;3.40;;;32.60;99.90;;;;;;5073616;28;20392;-54
2022/07/02 10:07:18;;;;;;;7.30;3.70;;;32.10;99.90;;;;;;5055478;28;20411;-53
2022/07/02 10:09:44;;;;;;;5.45;3.00;;;32.00;99.90;;;;;;5055988;28;21113;-53
2022/07/02 10:12:10;;;;;;;5.90;3.57;;;31.90;99.90;;;;;;5064853;28;20399;-54
2022/07/02 10:14:37;;;;;;;5.50;3.08;;;31.80;99.90;;;;;;5059401;28;20459;-54
2022/07/02 10:17:03;;;;;;;5.75;3.10;;;31.90;99.90;;;;;;5057871;28;20524;-54
2022/07/02 10:19:31;;;;;;;6.10;3.20;;;31.70;99.90;;;;;;5060603;28;20404;-53
2022/07/02 10:21:58;;;;;;;6.60;3.65;;;31.30;99.90;;;;;;5063395;28;20453;-53
2022/07/02 10:24:25;;;;;;;5.43;3.40;;;31.00;99.90;;;;;;5066037;28;20455;-53
2022/07/02 10:26:52;;;;;;;6.50;3.25;;;31.00;99.90;;;;;;5056518;28;20894;-53
2022/07/02 10:29:18;;;;;;;6.30;3.40;;;31.20;99.90;;;;;;5055660;28;20393;-55
2022/07/02 10:31:52;;;;;;;5.30;3.30;;;30.40;99.90;;;;;;5055680;28;20394;-54
2022/07/02 10:34:36;;;;;;;5.60;3.20;;;29.50;99.90;;;;;;5060935;28;20382;-54
2022/07/02 10:37:02;;;;;;;5.90;3.97;;;28.50;99.90;;;;;;5062933;28;20434;-54
2022/07/02 10:39:38;;;;;;;5.60;3.60;;;28.30;99.90;;;;;;5057918;28;20411;-53
2022/07/02 10:42:04;;;;;;;6.28;3.92;;;28.10;99.90;;;;;;5059879;28;20384;-53
2022/07/02 10:44:38;;;;;;;5.65;4.00;;;27.60;99.90;;;;;;5068467;28;20517;-53
2022/07/02 10:47:04;;;;;;;6.40;4.10;;;27.10;99.90;;;;;;5053332;28;20910;-53
2022/07/02 10:49:29;;;;;;;5.90;3.73;;;27.20;99.90;;;;;;5060339;28;20401;-53
2022/07/02 10:52:01;;;;;;;5.60;3.83;;;27.50;99.90;;;;;;5060695;28;20412;-54
2022/07/02 10:54:31;;;;;;;5.80;3.60;;;27.60;99.90;;;;;;5053125;28;20407;-53
2022/07/02 10:56:57;;;;;;;5.70;3.88;;;27.50;99.90;;;;;;5056135;28;20433;-53
2022/07/02 10:59:27;;;;;;;6.00;3.38;;;27.00;99.90;;;;;;5062357;28;20501;-54
2022/07/02 11:02:07;;;;;;;6.00;3.70;;;26.90;99.90;;;;;;5066102;28;20402;-53
2022/07/02 11:04:34;;;;;;;7.20;3.50;;;26.60;99.90;;;;;;5047176;28;20397;-53
2022/07/02 11:07:11;;;;;;;6.60;3.63;;;26.40;99.90;;;;;;5055069;28;20750;-53
2022/07/02 11:09:51;;;;;;;5.38;3.58;;;26.80;99.90;;;;;;5058520;28;20447;-53
2022/07/02 11:12:28;;;;;;;6.10;3.50;;;26.80;99.90;;;;;;5056897;28;20495;-53
2022/07/02 11:14:56;;;;;;;7.60;3.88;;;26.60;99.90;;;;;;5061106;28;20385;-53
2022/07/02 11:17:25;;;;;;;5.50;3.50;;;26.60;99.90;;;;;;5064153;28;20443;-53
2022/07/02 11:19:54;;;;;;;5.25;3.20;;;26.70;99.90;;;;;;5066382;28;20406;-53
2022/07/02 11:22:20;;;;;;;5.63;3.55;;;26.70;99.90;;;;;;5060521;28;20401;-53
2022/07/02 11:24:46;;;;;;;6.30;4.00;;;26.50;99.90;;;;;;5051845;28;20768;-53
2022/07/02 11:27:14;;;;;;;5.40;3.40;;;26.80;99.90;;;;;;5067363;28;20407;-53
2022/07/02 11:29:39;;;;;;;6.20;3.70;;;27.00;99.90;;;;;;5056592;28;20453;-53
2022/07/02 11:32:05;;;;;;;5.30;3.37;;;27.00;99.90;;;;;;5050512;28;20424;-53
2022/07/02 11:34:31;;;;;;;5.80;3.53;;;26.60;99.90;;;;;;5057924;28;20394;-53
2022/07/02 11:36:57;;;;;;;8.10;3.53;;;27.00;99.90;;;;;;5062885;28;20890;-53
2022/07/02 11:39:25;;;;;;;5.33;3.50;;;27.50;99.90;;;;;;5058444;28;20879;-54
2022/07/02 11:41:51;;;;;;;6.00;3.40;;;27.70;99.90;;;;;;5053549;28;21177;-52
2022/07/02 11:44:25;;;;;;;5.90;3.30;;;27.60;99.90;;;;;;5056694;28;20475;-53
2022/07/02 11:46:58;;;;;;;6.37;3.30;;;27.70;99.90;;;;;;5055614;28;20414;-53
2022/07/02 11:49:27;;;;;;;5.82;3.60;;;27.30;99.90;;;;;;5058037;28;20392;-53
2022/07/02 11:51:55;;;;;;;5.68;3.35;;;26.70;99.90;;;;;;5057566;28;20404;-53
2022/07/02 11:54:22;;;;;;;5.37;3.50;;;26.70;99.90;;;;;;5052433;28;20859;-53
2022/07/02 11:56:49;;;;;;;5.40;3.78;;;26.70;99.90;;;;;;5056323;28;20461;-53
2022/07/02 11:59:17;;;;;;;6.07;3.60;;;26.70;99.90;;;;;;5064025;28;20387;-53
2022/07/02 12:01:44;;;;;;;5.70;3.50;;;26.70;99.90;;;;;;5055270;28;20393;-53
2022/07/02 12:04:12;;;;;;;6.60;3.35;;;26.80;99.90;;;;;;5061583;28;20412;-53
2022/07/02 12:06:40;;;;;;;5.50;3.47;;;26.70;99.90;;;;;;5061791;28;20431;-53
2022/07/02 12:09:15;;;;;;;6.70;3.80;;;26.70;99.90;;;;;;5070257;28;20410;-53
2022/07/02 12:11:44;;;;;;;6.82;4.10;;;26.60;99.90;;;;;;5061195;28;20470;-53
2022/07/02 12:14:10;;;;;;;5.80;3.50;;;27.00;99.90;;;;;;5065844;28;20394;-53
2022/07/02 12:16:39;;;;;;;5.50;3.60;;;27.40;99.90;;;;;;5073588;28;20478;-53
2022/07/02 12:19:14;;;;;;;6.13;3.88;;;27.00;99.90;;;;;;5055942;28;20768;-53
2022/07/02 12:21:48;;;;;;;7.30;3.70;;;27.00;99.90;;;;;;5058010;28;20420;-53
2022/07/02 12:24:19;;;;;;;5.90;4.10;;;26.90;99.90;;;;;;5054245;28;20438;-53
2022/07/02 12:26:50;;;;;;;5.97;3.95;;;26.60;99.90;;;;;;5052816;28;20415;-53
2022/07/02 12:32:06;;;;;;;5.50;3.80;;;26.80;99.90;;;;;;5070937;28;20495;-53
2022/07/02 12:34:40;;;;;;;6.30;4.10;;;26.90;99.90;;;;;;5063773;28;20401;-54
2022/07/02 12:37:06;;;;;;;6.55;3.95;;;27.10;99.90;;;;;;5055885;28;20401;-53
2022/07/02 12:39:43;;;;;;;5.67;3.70;;;27.20;99.90;;;;;;5060513;28;20457;-54
2022/07/02 12:42:16;;;;;;;7.40;4.00;;;27.30;99.90;;;;;;5060948;28;20430;-54
2022/07/02 12:45:04;;;;;;;5.70;3.35;;;27.30;99.90;;;;;;5059615;28;20507;-54
2022/07/02 12:47:35;;;;;;;6.80;3.70;;;27.50;99.90;;;;;;5055551;28;20552;-54
2022/07/02 12:50:12;;;;;;;6.83;3.80;;;27.50;99.90;;;;;;5059641;28;20413;-54
2022/07/02 12:53:05;;;;;;;5.65;3.80;;;27.50;99.90;;;;;;5059437;28;20508;-54
2022/07/02 12:55:36;;;;;;;5.40;3.70;;;27.00;99.90;;;;;;5060779;28;20509;-54